createdAt,value
2023-02-17T00:01:31.150Z,4.60
2023-02-17T00:03:59.480Z,4.60
2023-02-17T00:06:29.890Z,4.50
2023-02-17T00:08:59.476Z,4.60
2023-02-17T00:11:28.391Z,4.60
2023-02-17T00:13:58.047Z,4.50
2023-02-17T00:16:28.211Z,4.50
2023-02-17T00:18:57.804Z,4.50
2023-02-17T00:21:27.962Z,4.50
2023-02-17T00:23:55.900Z,4.60
2023-02-17T00:26:24.374Z,4.50
2023-02-17T00:28:52.626Z,4.50
2023-02-17T00:31:24.408Z,4.60
2023-02-17T00:33:55.895Z,4.60
2023-02-17T00:36:24.419Z,4.60
2023-02-17T00:38:52.817Z,4.60
2023-02-17T00:41:21.355Z,4.60
2023-02-17T00:43:50.122Z,4.60
2023-02-17T00:46:19.508Z,4.70
2023-02-17T00:48:49.623Z,4.70
2023-02-17T00:51:18.472Z,4.70
2023-02-17T00:53:46.887Z,4.80
2023-02-17T00:56:15.317Z,4.90
2023-02-17T00:58:43.517Z,4.90
2023-02-17T01:01:12.683Z,4.90
2023-02-17T01:03:42.286Z,4.90
2023-02-17T01:06:16.532Z,5.00
2023-02-17T01:08:44.582Z,5.00
2023-02-17T01:11:19.125Z,5.00
2023-02-17T01:13:47.228Z,5.00
2023-02-17T01:16:21.012Z,5.00
2023-02-17T01:18:49.560Z,4.90
2023-02-17T01:21:20.390Z,4.90
2023-02-17T01:23:50.951Z,4.90
2023-02-17T01:26:20.775Z,4.90
2023-02-17T01:28:49.335Z,4.90
2023-02-17T01:31:19.307Z,4.90
2023-02-17T01:33:47.602Z,4.90
2023-02-17T01:36:18.059Z,4.90
2023-02-17T01:38:47.669Z,4.90
2023-02-17T01:41:17.600Z,4.90
2023-02-17T01:44:17.344Z,4.90
2023-02-17T01:46:46.637Z,4.90
2023-02-17T01:49:24.237Z,5.00
2023-02-17T01:51:56.578Z,5.00
2023-02-17T01:54:29.769Z,5.00
2023-02-17T01:56:59.897Z,5.00
2023-02-17T01:59:29.447Z,5.00
2023-02-17T02:02:01.383Z,5.10
2023-02-17T02:04:33.325Z,5.10
2023-02-17T02:07:01.769Z,5.00
2023-02-17T02:09:35.691Z,5.10
2023-02-17T02:12:04.062Z,5.00
2023-02-17T02:14:32.103Z,5.10
2023-02-17T02:17:09.956Z,5.10
2023-02-17T02:20:08.729Z,5.10
2023-02-17T02:23:08.718Z,5.10
2023-02-17T02:26:06.451Z,5.20
2023-02-17T02:28:52.462Z,5.20
2023-02-17T02:31:38.938Z,5.20
2023-02-17T02:34:10.969Z,5.20
2023-02-17T02:36:44.708Z,5.20
2023-02-17T02:39:17.234Z,5.30
2023-02-17T02:41:47.909Z,5.30
2023-02-17T02:44:19.205Z,5.30
2023-02-17T02:46:47.324Z,5.30
2023-02-17T02:49:16.793Z,5.30
2023-02-17T02:51:51.124Z,5.30
2023-02-17T02:54:42.090Z,5.40
2023-02-17T02:57:23.907Z,5.40
2023-02-17T03:00:03.062Z,5.50
2023-02-17T03:02:37.018Z,5.50
2023-02-17T03:05:14.519Z,5.40
2023-02-17T03:07:48.812Z,5.50
2023-02-17T03:10:18.040Z,5.50
2023-02-17T03:12:46.041Z,5.70
2023-02-17T03:15:19.921Z,5.70
2023-02-17T03:17:48.023Z,5.70
2023-02-17T03:20:17.687Z,5.70
2023-02-17T03:22:48.483Z,5.60
2023-02-17T03:25:17.434Z,5.60
2023-02-17T03:27:45.575Z,5.60
2023-02-17T03:30:14.240Z,5.50
2023-02-17T03:32:42.878Z,5.50
2023-02-17T03:35:11.003Z,5.50
2023-02-17T03:37:40.426Z,5.60
2023-02-17T03:40:10.012Z,5.50
2023-02-17T03:42:38.386Z,5.50
2023-02-17T03:45:06.995Z,5.50
2023-02-17T03:47:35.784Z,5.60
2023-02-17T03:50:03.983Z,5.60
2023-02-17T03:52:32.540Z,5.60
2023-02-17T03:55:02.431Z,5.60
2023-02-17T03:57:31.954Z,5.60
2023-02-17T03:59:59.969Z,5.60
2023-02-17T04:02:28.519Z,5.60
2023-02-17T04:04:56.520Z,5.60
2023-02-17T04:07:24.935Z,5.60
2023-02-17T04:09:53.213Z,5.60
2023-02-17T04:12:22.525Z,5.60
2023-02-17T04:14:50.915Z,5.60
2023-02-17T04:17:19.472Z,5.70
2023-02-17T04:19:47.760Z,5.70
2023-02-17T04:22:16.063Z,5.80
2023-02-17T04:24:44.396Z,5.70
2023-02-17T04:27:12.452Z,5.70
2023-02-17T04:29:42.277Z,5.70
2023-02-17T04:32:10.763Z,5.80
2023-02-17T04:34:39.062Z,5.80
2023-02-17T04:37:08.959Z,5.80
2023-02-17T04:39:36.985Z,5.80
2023-02-17T04:42:05.080Z,5.80
2023-02-17T04:44:33.107Z,5.80
2023-02-17T04:47:02.491Z,5.80
2023-02-17T04:49:30.437Z,5.90
2023-02-17T04:51:58.512Z,5.90
2023-02-17T04:54:26.496Z,5.90
2023-02-17T04:56:54.472Z,5.90
2023-02-17T04:59:24.138Z,5.90
2023-02-17T05:01:53.412Z,5.90
2023-02-17T05:04:22.754Z,6.00
2023-02-17T05:06:50.699Z,6.10
2023-02-17T05:09:18.718Z,6.10
2023-02-17T05:11:47.071Z,6.10
2023-02-17T05:14:15.100Z,6.10
2023-02-17T05:16:43.099Z,6.20
2023-02-17T05:19:11.000Z,6.20
2023-02-17T05:21:40.436Z,6.20
2023-02-17T05:24:08.855Z,6.30
2023-02-17T05:26:36.787Z,6.50
2023-02-17T05:29:04.967Z,6.70
2023-02-17T05:31:33.012Z,6.80
2023-02-17T05:34:01.041Z,7.00
2023-02-17T05:36:29.037Z,7.10
2023-02-17T05:38:58.398Z,7.20
2023-02-17T05:41:26.485Z,7.20
2023-02-17T05:43:54.497Z,7.40
2023-02-17T05:46:23.375Z,7.40
2023-02-17T05:48:51.493Z,7.50
2023-02-17T05:51:19.437Z,7.50
2023-02-17T05:53:47.404Z,7.50
2023-02-17T05:56:16.747Z,7.50
2023-02-17T05:58:44.704Z,7.40
2023-02-17T06:01:13.454Z,7.50
2023-02-17T06:03:41.636Z,7.50
2023-02-17T06:06:09.728Z,7.50
2023-02-17T06:08:37.932Z,7.50
2023-02-17T06:11:06.119Z,7.50
2023-02-17T06:13:35.540Z,7.60
2023-02-17T06:16:03.859Z,7.50
2023-02-17T06:18:31.952Z,7.50
2023-02-17T06:21:00.492Z,7.60
2023-02-17T06:23:28.760Z,7.50
2023-02-17T06:25:56.943Z,7.50
2023-02-17T06:28:24.955Z,7.50
2023-02-17T06:30:54.459Z,7.60
2023-02-17T06:33:22.557Z,7.70
2023-02-17T06:35:51.236Z,7.80
2023-02-17T06:38:19.573Z,7.80
2023-02-17T06:40:47.962Z,7.80
2023-02-17T06:43:15.998Z,7.80
2023-02-17T06:45:44.007Z,7.90
2023-02-17T06:48:13.350Z,7.90
2023-02-17T06:50:41.323Z,8.00
2023-02-17T06:53:09.316Z,8.10
2023-02-17T06:55:38.990Z,8.00
2023-02-17T06:58:07.409Z,8.00
2023-02-17T07:00:35.618Z,8.00
2023-02-17T07:03:03.782Z,8.00
2023-02-17T07:05:35.259Z,8.00
2023-02-17T07:08:03.521Z,8.00
2023-02-17T07:10:31.840Z,8.10
2023-02-17T07:13:00.131Z,8.00
2023-02-17T07:15:28.114Z,8.10
2023-02-17T07:17:56.235Z,8.10
2023-02-17T07:20:24.151Z,8.10
2023-02-17T07:22:53.525Z,8.20
2023-02-17T07:25:21.483Z,8.20
2023-02-17T07:27:49.447Z,8.10
2023-02-17T07:30:17.903Z,8.10
2023-02-17T07:32:46.083Z,7.90
2023-02-17T07:35:14.111Z,8.00
2023-02-17T07:37:42.104Z,8.00
2023-02-17T07:40:12.362Z,8.10
2023-02-17T07:42:40.455Z,8.10
2023-02-17T07:45:09.120Z,8.30
2023-02-17T07:47:37.202Z,8.30
2023-02-17T07:50:05.678Z,8.30
2023-02-17T07:52:33.774Z,8.50
2023-02-17T07:55:01.776Z,8.70
2023-02-17T07:57:31.414Z,8.70
2023-02-17T07:59:59.700Z,8.80
2023-02-17T08:02:27.947Z,8.80
2023-02-17T08:04:56.020Z,8.80
2023-02-17T08:07:24.189Z,8.90
2023-02-17T08:10:09.540Z,8.90
2023-02-17T08:12:56.191Z,8.90
2023-02-17T08:15:24.398Z,9.00
2023-02-17T08:17:53.272Z,9.10
2023-02-17T08:20:21.609Z,9.10
2023-02-17T08:22:49.682Z,9.20
2023-02-17T08:25:19.014Z,9.30
2023-02-17T08:27:48.648Z,9.40
2023-02-17T08:30:16.789Z,9.60
2023-02-17T08:32:47.641Z,9.80
2023-02-17T08:35:16.065Z,9.90
2023-02-17T08:37:44.124Z,9.80
2023-02-17T08:40:12.799Z,9.70
2023-02-17T08:42:40.942Z,9.70
2023-02-17T08:45:10.694Z,9.60
2023-02-17T08:47:38.694Z,9.60
2023-02-17T08:50:07.881Z,9.60
2023-02-17T08:52:35.996Z,9.60
2023-02-17T08:55:05.263Z,9.70
2023-02-17T08:57:33.282Z,9.50
2023-02-17T09:00:01.303Z,9.60
2023-02-17T09:02:31.012Z,9.60
2023-02-17T09:04:59.108Z,9.50
2023-02-17T09:07:27.446Z,9.50
2023-02-17T09:09:55.613Z,9.50
2023-02-17T09:12:23.494Z,9.60
2023-02-17T09:14:51.564Z,9.50
2023-02-17T09:17:19.737Z,9.50
2023-02-17T09:19:49.385Z,9.50
2023-02-17T09:22:30.745Z,9.70
2023-02-17T09:25:18.666Z,9.70
2023-02-17T09:27:50.276Z,9.80
2023-02-17T09:30:18.737Z,9.70
2023-02-17T09:32:47.130Z,9.70
2023-02-17T09:35:18.822Z,9.70
2023-02-17T09:37:47.381Z,9.80
2023-02-17T09:40:22.424Z,9.90
2023-02-17T09:42:50.687Z,9.90
2023-02-17T09:45:23.104Z,10.00
2023-02-17T09:47:54.503Z,10.00
2023-02-17T09:50:28.628Z,10.20
2023-02-17T09:52:59.912Z,10.50
2023-02-17T09:55:34.355Z,10.60
2023-02-17T09:58:07.827Z,10.50
2023-02-17T10:00:40.917Z,10.40
2023-02-17T10:03:17.803Z,10.40
2023-02-17T10:05:52.400Z,10.40
2023-02-17T10:08:25.194Z,10.50
2023-02-17T10:10:58.870Z,10.60
2023-02-17T10:13:31.443Z,10.70
2023-02-17T10:16:05.636Z,10.70
2023-02-17T10:18:37.555Z,10.80
2023-02-17T10:21:13.272Z,10.80
2023-02-17T10:23:41.558Z,10.90
2023-02-17T10:26:20.807Z,10.90
2023-02-17T10:28:52.790Z,11.00
2023-02-17T10:31:36.511Z,10.90
2023-02-17T10:34:06.806Z,10.90
2023-02-17T10:36:52.165Z,10.90
2023-02-17T10:39:47.319Z,10.80
2023-02-17T10:42:21.514Z,10.70
2023-02-17T10:44:51.971Z,10.90
2023-02-17T10:47:21.736Z,10.90
2023-02-17T10:49:54.276Z,10.90
2023-02-17T10:52:28.748Z,10.90
2023-02-17T10:55:01.947Z,11.00
2023-02-17T10:57:36.244Z,11.10
2023-02-17T11:00:09.714Z,11.20
2023-02-17T11:02:41.040Z,11.30
2023-02-17T11:05:09.619Z,11.40
2023-02-17T11:07:42.285Z,11.50
2023-02-17T11:10:24.007Z,11.50
2023-02-17T11:12:52.503Z,11.80
2023-02-17T11:15:24.416Z,11.80
2023-02-17T11:17:53.007Z,11.90
2023-02-17T11:20:33.302Z,12.00
2023-02-17T11:23:07.019Z,11.90
2023-02-17T11:25:37.750Z,11.90
2023-02-17T11:28:11.603Z,12.00
2023-02-17T11:30:43.415Z,12.00
2023-02-17T11:33:16.303Z,12.20
2023-02-17T11:35:49.286Z,12.20
2023-02-17T11:38:21.219Z,12.20
2023-02-17T11:40:59.485Z,12.40
2023-02-17T11:43:29.474Z,12.60
2023-02-17T11:46:07.864Z,12.60
2023-02-17T11:49:07.947Z,12.60
2023-02-17T11:51:47.804Z,12.60
2023-02-17T11:54:25.352Z,12.80
2023-02-17T11:57:16.211Z,12.80
2023-02-17T12:00:11.537Z,13.00
2023-02-17T12:03:01.142Z,12.90
2023-02-17T12:05:40.367Z,13.00
2023-02-17T12:08:20.072Z,12.90
2023-02-17T12:11:02.781Z,12.80
2023-02-17T12:13:46.881Z,12.90
2023-02-17T12:16:35.041Z,12.80
2023-02-17T12:19:07.389Z,12.80
2023-02-17T12:21:48.979Z,12.80
2023-02-17T12:24:40.146Z,12.80
2023-02-17T12:27:12.059Z,12.70
2023-02-17T12:30:00.365Z,12.80
2023-02-17T12:32:39.774Z,12.80
2023-02-17T12:35:17.804Z,12.70
2023-02-17T12:37:52.024Z,12.50
2023-02-17T12:40:32.833Z,12.50
2023-02-17T12:43:09.710Z,12.40
2023-02-17T12:45:41.973Z,12.40
2023-02-17T12:48:17.190Z,12.30
2023-02-17T12:50:54.058Z,12.20
2023-02-17T12:53:29.075Z,12.30
2023-02-17T12:56:00.122Z,12.30
2023-02-17T12:58:30.541Z,12.40
2023-02-17T13:01:07.127Z,12.40
2023-02-17T13:03:37.449Z,12.40
2023-02-17T13:06:16.036Z,12.30
2023-02-17T13:08:48.167Z,12.40
2023-02-17T13:11:31.031Z,12.40
2023-02-17T13:14:11.842Z,12.60
2023-02-17T13:16:44.881Z,12.70
2023-02-17T13:19:16.085Z,12.60
2023-02-17T13:21:54.107Z,12.60
2023-02-17T13:24:34.351Z,12.70
2023-02-17T13:27:13.546Z,12.60
2023-02-17T13:29:42.990Z,12.50
2023-02-17T13:32:13.352Z,12.70
2023-02-17T13:34:43.492Z,12.80
2023-02-17T13:37:24.830Z,12.60
2023-02-17T13:39:53.392Z,12.50
2023-02-17T13:42:39.595Z,12.60
2023-02-17T13:45:21.184Z,12.60
2023-02-17T13:47:51.386Z,12.70
2023-02-17T13:50:34.447Z,12.70
2023-02-17T13:53:03.823Z,12.50
2023-02-17T13:55:31.825Z,12.70
2023-02-17T13:58:00.781Z,12.60
2023-02-17T14:00:31.841Z,12.70
2023-02-17T14:03:05.935Z,12.70
2023-02-17T14:05:39.092Z,12.70
2023-02-17T14:08:09.637Z,12.70
2023-02-17T14:10:37.840Z,12.70
2023-02-17T14:13:06.124Z,12.80
2023-02-17T14:15:35.568Z,12.80
2023-02-17T14:18:14.542Z,12.80
2023-02-17T14:20:42.514Z,12.80
2023-02-17T14:23:12.604Z,12.70
2023-02-17T14:25:42.676Z,12.70
2023-02-17T14:28:20.637Z,12.80
2023-02-17T14:30:50.504Z,12.70
2023-02-17T14:33:24.088Z,12.80
2023-02-17T14:35:54.318Z,12.80
2023-02-17T14:38:24.494Z,13.00
2023-02-17T14:40:53.367Z,12.90
2023-02-17T14:43:21.489Z,12.90
2023-02-17T14:45:51.596Z,12.80
2023-02-17T14:48:19.944Z,12.80
2023-02-17T14:50:48.549Z,12.90
2023-02-17T14:53:23.338Z,13.00
2023-02-17T14:55:55.563Z,12.80
2023-02-17T14:58:30.910Z,12.70
2023-02-17T15:01:01.164Z,12.80
2023-02-17T15:03:29.073Z,12.70
2023-02-17T15:05:57.171Z,12.70
2023-02-17T15:08:32.537Z,12.80
2023-02-17T15:11:01.030Z,12.80
2023-02-17T15:13:29.165Z,12.90
2023-02-17T15:15:57.206Z,13.00
2023-02-17T15:18:28.075Z,12.90
2023-02-17T15:20:56.307Z,13.00
2023-02-17T15:23:25.533Z,12.90
2023-02-17T15:25:54.820Z,12.90
2023-02-17T15:28:23.287Z,12.80
2023-02-17T15:30:53.040Z,12.80
2023-02-17T15:33:22.307Z,12.90
2023-02-17T15:35:54.539Z,13.00
2023-02-17T15:38:23.554Z,12.90
2023-02-17T15:40:51.902Z,12.90
2023-02-17T15:43:22.890Z,12.80
2023-02-17T15:45:50.922Z,12.80
2023-02-17T15:48:24.669Z,12.80
2023-02-17T15:50:54.928Z,12.80
2023-02-17T15:53:23.124Z,12.70
2023-02-17T15:55:52.327Z,12.70
2023-02-17T15:58:22.976Z,12.70
2023-02-17T16:00:51.305Z,12.70
2023-02-17T16:03:19.920Z,12.70
2023-02-17T16:05:48.000Z,12.70
2023-02-17T16:08:17.433Z,12.70
2023-02-17T16:10:46.690Z,12.70
2023-02-17T16:13:19.540Z,12.70
2023-02-17T16:15:50.373Z,12.70
2023-02-17T16:18:22.511Z,12.80
2023-02-17T16:20:51.758Z,12.70
2023-02-17T16:23:20.994Z,12.70
2023-02-17T16:25:50.806Z,12.80
2023-02-17T16:28:20.853Z,12.70
2023-02-17T16:30:49.579Z,12.70
2023-02-17T16:33:18.333Z,12.60
2023-02-17T16:35:46.967Z,12.50
2023-02-17T16:38:18.609Z,12.50
2023-02-17T16:40:52.091Z,12.50
2023-02-17T16:43:22.615Z,12.50
2023-02-17T16:45:54.374Z,12.40
2023-02-17T16:48:24.077Z,12.40
2023-02-17T16:50:52.213Z,12.50
2023-02-17T16:53:20.203Z,12.50
2023-02-17T16:55:49.899Z,12.50
2023-02-17T16:58:20.011Z,12.50
2023-02-17T17:00:49.305Z,12.40
2023-02-17T17:03:17.350Z,12.40
2023-02-17T17:05:46.651Z,12.40
2023-02-17T17:08:16.536Z,12.30
2023-02-17T17:10:46.266Z,12.30
2023-02-17T17:13:15.562Z,12.40
2023-02-17T17:15:46.382Z,12.40
2023-02-17T17:18:20.895Z,12.40
2023-02-17T17:20:49.378Z,12.40
2023-02-17T17:23:20.175Z,12.40
2023-02-17T17:25:48.709Z,12.40
2023-02-17T17:28:20.321Z,12.40
2023-02-17T17:30:48.758Z,12.50
2023-02-17T17:33:17.293Z,12.40
2023-02-17T17:35:45.347Z,12.40
2023-02-17T17:38:16.328Z,12.40
2023-02-17T17:40:50.403Z,12.40
2023-02-17T17:43:21.324Z,12.40
2023-02-17T17:45:50.118Z,12.40
2023-02-17T17:48:18.752Z,12.40
2023-02-17T17:50:47.242Z,12.30
2023-02-17T17:53:15.356Z,12.50
2023-02-17T17:55:43.387Z,12.50
2023-02-17T17:58:11.496Z,12.50
2023-02-17T18:00:40.916Z,12.40
2023-02-17T18:03:09.041Z,12.40
2023-02-17T18:05:37.762Z,12.40
2023-02-17T18:08:07.444Z,12.40
2023-02-17T18:10:35.842Z,12.40
2023-02-17T18:13:03.931Z,12.50
2023-02-17T18:15:32.150Z,12.40
2023-02-17T18:18:01.497Z,12.40
2023-02-17T18:20:29.522Z,12.30
2023-02-17T18:22:57.601Z,12.40
2023-02-17T18:25:25.693Z,12.50
2023-02-17T18:27:53.706Z,12.40
2023-02-17T18:30:23.407Z,12.40
2023-02-17T18:32:52.927Z,12.30
2023-02-17T18:35:22.730Z,12.40
2023-02-17T18:37:50.793Z,12.40
2023-02-17T18:40:22.249Z,12.30
2023-02-17T18:42:50.317Z,12.30
2023-02-17T18:45:18.650Z,12.20
2023-02-17T18:47:46.849Z,12.20
2023-02-17T18:50:16.977Z,12.10
2023-02-17T18:52:46.283Z,12.10
2023-02-17T18:55:15.780Z,12.10
2023-02-17T18:57:44.757Z,12.20
2023-02-17T19:00:15.144Z,12.10
2023-02-17T19:02:43.586Z,12.10
2023-02-17T19:05:13.451Z,12.10
2023-02-17T19:07:41.443Z,12.10
2023-02-17T19:10:12.129Z,12.10
2023-02-17T19:12:40.267Z,12.20
2023-02-17T19:15:09.022Z,12.20
2023-02-17T19:17:37.039Z,12.30
2023-02-17T19:20:05.604Z,12.30
2023-02-17T19:22:37.203Z,12.30
2023-02-17T19:25:05.917Z,12.30
2023-02-17T19:27:35.592Z,12.40
2023-02-17T19:30:03.592Z,12.30
2023-02-17T19:32:31.634Z,12.30
2023-02-17T19:35:00.531Z,12.30
2023-02-17T19:37:28.862Z,12.30
2023-02-17T19:39:57.314Z,12.30
2023-02-17T19:42:37.405Z,12.20
2023-02-17T19:45:06.270Z,12.20
2023-02-17T19:47:55.455Z,12.20
2023-02-17T19:50:23.489Z,12.10
2023-02-17T19:52:51.950Z,12.10
2023-02-17T19:55:20.504Z,12.10
2023-02-17T19:57:52.884Z,12.10
2023-02-17T20:00:21.230Z,11.90
2023-02-17T20:02:49.343Z,11.90
2023-02-17T20:05:17.451Z,11.90
2023-02-17T20:07:46.292Z,11.80
2023-02-17T20:10:14.649Z,11.70
2023-02-17T20:12:42.798Z,11.70
2023-02-17T20:15:12.343Z,11.60
2023-02-17T20:17:41.377Z,11.60
2023-02-17T20:20:12.459Z,11.70
2023-02-17T20:22:41.086Z,11.70
2023-02-17T20:25:11.982Z,11.70
2023-02-17T20:27:40.264Z,11.60
2023-02-17T20:30:09.488Z,11.60
2023-02-17T20:32:39.348Z,11.60
2023-02-17T20:35:08.233Z,11.60
2023-02-17T20:37:36.303Z,11.80
2023-02-17T20:40:05.234Z,11.90
2023-02-17T20:42:39.481Z,11.90
2023-02-17T20:45:09.835Z,11.90
2023-02-17T20:47:47.060Z,11.90
2023-02-17T20:50:18.732Z,12.00
2023-02-17T20:52:47.390Z,12.00
2023-02-17T20:55:17.170Z,12.00
2023-02-17T20:57:47.492Z,12.00
2023-02-17T21:00:19.650Z,11.90
2023-02-17T21:02:52.321Z,12.00
2023-02-17T21:05:20.994Z,12.00
2023-02-17T21:07:49.597Z,12.00
2023-02-17T21:10:22.707Z,11.90
2023-02-17T21:12:51.039Z,11.90
2023-02-17T21:15:19.614Z,11.80
2023-02-17T21:17:49.880Z,11.80
2023-02-17T21:20:20.602Z,11.70
2023-02-17T21:22:48.666Z,11.70
2023-02-17T21:25:16.762Z,11.70
2023-02-17T21:27:45.016Z,11.70
2023-02-17T21:30:13.863Z,11.70
2023-02-17T21:32:43.216Z,11.70
2023-02-17T21:35:13.204Z,11.60
2023-02-17T21:37:41.309Z,11.60
2023-02-17T21:40:10.811Z,11.50
2023-02-17T21:42:56.230Z,11.50
2023-02-17T21:45:24.452Z,11.50
2023-02-17T21:47:53.130Z,11.50
2023-02-17T21:50:23.292Z,11.50
2023-02-17T21:52:51.301Z,11.50
2023-02-17T21:55:21.627Z,11.40
2023-02-17T21:57:52.419Z,11.40
2023-02-17T22:00:21.080Z,11.40
2023-02-17T22:02:49.134Z,11.40
2023-02-17T22:05:17.223Z,11.40
2023-02-17T22:07:49.264Z,11.40
2023-02-17T22:10:17.854Z,11.40
2023-02-17T22:12:45.750Z,11.50
2023-02-17T22:15:16.162Z,11.40
2023-02-17T22:17:44.110Z,11.40
2023-02-17T22:20:15.136Z,11.30
2023-02-17T22:22:43.200Z,11.30
2023-02-17T22:25:14.103Z,11.30
2023-02-17T22:27:42.281Z,11.30
2023-02-17T22:30:10.911Z,11.30
2023-02-17T22:32:40.335Z,11.30
2023-02-17T22:35:08.423Z,11.30
2023-02-17T22:37:36.974Z,11.30
2023-02-17T22:40:06.890Z,11.30
2023-02-17T22:42:36.343Z,11.40
2023-02-17T22:45:06.047Z,11.40
2023-02-17T22:47:34.302Z,11.40
2023-02-17T22:50:02.630Z,11.40
2023-02-17T22:52:30.613Z,11.40
2023-02-17T22:54:58.908Z,11.40
2023-02-17T22:57:26.874Z,11.30
2023-02-17T22:59:56.189Z,11.30
2023-02-17T23:02:24.166Z,11.30
2023-02-17T23:04:52.158Z,11.40
2023-02-17T23:07:20.091Z,11.40
2023-02-17T23:09:49.968Z,11.40
2023-02-17T23:12:17.977Z,11.30
2023-02-17T23:14:46.393Z,11.30
2023-02-17T23:17:15.784Z,11.40
2023-02-17T23:19:43.808Z,11.40
2023-02-17T23:22:15.932Z,11.50
2023-02-17T23:24:44.314Z,11.60
2023-02-17T23:27:12.955Z,11.60
2023-02-17T23:29:42.451Z,11.60
2023-02-17T23:32:10.855Z,11.60
2023-02-17T23:34:40.276Z,11.60
2023-02-17T23:37:08.313Z,11.50
2023-02-17T23:39:39.201Z,11.50
2023-02-17T23:42:07.490Z,11.40
2023-02-17T23:44:35.593Z,11.40
2023-02-17T23:47:05.148Z,11.40
2023-02-17T23:49:33.148Z,11.30
2023-02-17T23:52:02.689Z,11.20
2023-02-17T23:54:30.679Z,11.20
2023-02-17T23:56:58.740Z,11.20
2023-02-17T23:59:26.762Z,11.20
